sensor_id;sensor_type;location;lat;lon;timestamp;pressure;altitude;pressure_sealevel;temperature;humidity
47430;BME280;33181;49.246;7.372;2023-02-14T00:02:16;100650.09;;;1.57;84.13
47430;BME280;33181;49.246;7.372;2023-02-14T00:04:42;100646.81;;;1.44;85.06
47430;BME280;33181;49.246;7.372;2023-02-14T00:07:10;100639.91;;;1.45;85.51
47430;BME280;33181;49.246;7.372;2023-02-14T00:09:36;100646.00;;;1.41;85.97
47430;BME280;33181;49.246;7.372;2023-02-14T00:12:01;100643.50;;;1.34;86.52
47430;BME280;33181;49.246;7.372;2023-02-14T00:14:28;100644.53;;;1.21;88.78
47430;BME280;33181;49.246;7.372;2023-02-14T00:17:12;100643.59;;;1.27;89.33
47430;BME280;33181;49.246;7.372;2023-02-14T00:19:37;100640.13;;;1.28;88.43
47430;BME280;33181;49.246;7.372;2023-02-14T00:22:04;100636.56;;;1.36;88.10
47430;BME280;33181;49.246;7.372;2023-02-14T00:24:30;100632.41;;;1.25;88.53
47430;BME280;33181;49.246;7.372;2023-02-14T00:26:56;100635.06;;;1.19;89.68
47430;BME280;33181;49.246;7.372;2023-02-14T00:29:28;100632.41;;;1.26;89.18
47430;BME280;33181;49.246;7.372;2023-02-14T00:31:55;100641.00;;;1.25;89.56
47430;BME280;33181;49.246;7.372;2023-02-14T00:34:21;100637.63;;;1.19;89.82
47430;BME280;33181;49.246;7.372;2023-02-14T00:36:47;100637.63;;;1.19;89.95
47430;BME280;33181;49.246;7.372;2023-02-14T00:39:14;100634.19;;;1.18;90.26
47430;BME280;33181;49.246;7.372;2023-02-14T00:41:41;100639.44;;;1.12;90.38
47430;BME280;33181;49.246;7.372;2023-02-14T00:44:08;100634.25;;;1.15;90.75
47430;BME280;33181;49.246;7.372;2023-02-14T00:46:34;100630.75;;;1.18;90.58
47430;BME280;33181;49.246;7.372;2023-02-14T00:49:00;100635.03;;;1.23;90.26
47430;BME280;33181;49.246;7.372;2023-02-14T00:51:26;100634.97;;;1.25;90.15
47430;BME280;33181;49.246;7.372;2023-02-14T00:53:52;100634.16;;;1.20;89.32
47430;BME280;33181;49.246;7.372;2023-02-14T00:56:19;100632.53;;;1.14;89.54
47430;BME280;33181;49.246;7.372;2023-02-14T00:58:45;100635.31;;;0.96;89.38
47430;BME280;33181;49.246;7.372;2023-02-14T01:01:14;100633.59;;;0.95;89.59
47430;BME280;33181;49.246;7.372;2023-02-14T01:03:40;100635.41;;;0.86;90.48
47430;BME280;33181;49.246;7.372;2023-02-14T01:06:06;100637.06;;;0.95;90.48
47430;BME280;33181;49.246;7.372;2023-02-14T01:08:32;100639.47;;;1.09;90.64
47430;BME280;33181;49.246;7.372;2023-02-14T01:13:33;100636.72;;;1.24;89.66
47430;BME280;33181;49.246;7.372;2023-02-14T01:16:09;100638.38;;;1.28;89.10
47430;BME280;33181;49.246;7.372;2023-02-14T01:18:36;100636.63;;;1.32;88.56
47430;BME280;33181;49.246;7.372;2023-02-14T01:21:14;100645.28;;;1.29;88.37
47430;BME280;33181;49.246;7.372;2023-02-14T01:23:41;100637.50;;;1.31;88.31
47430;BME280;33181;49.246;7.372;2023-02-14T01:26:08;100636.63;;;1.32;87.90
47430;BME280;33181;49.246;7.372;2023-02-14T01:28:34;100640.09;;;1.31;86.99
47430;BME280;33181;49.246;7.372;2023-02-14T01:31:16;100647.00;;;1.29;86.86
47430;BME280;33181;49.246;7.372;2023-02-14T01:33:45;100647.00;;;1.30;86.12
47430;BME280;33181;49.246;7.372;2023-02-14T01:36:24;100643.53;;;1.31;86.12
47430;BME280;33181;49.246;7.372;2023-02-14T01:38:54;100637.53;;;1.29;85.70
47430;BME280;33181;49.246;7.372;2023-02-14T01:41:21;100635.84;;;1.25;84.99
47430;BME280;33181;49.246;7.372;2023-02-14T01:43:59;100637.59;;;1.23;85.05
47430;BME280;33181;49.246;7.372;2023-02-14T01:46:29;100627.28;;;1.19;84.81
47430;BME280;33181;49.246;7.372;2023-02-14T01:49:05;100626.47;;;1.15;84.91
47430;BME280;33181;49.246;7.372;2023-02-14T01:51:32;100631.66;;;1.13;84.95
47430;BME280;33181;49.246;7.372;2023-02-14T01:54:00;100632.50;;;1.17;84.61
47430;BME280;33181;49.246;7.372;2023-02-14T01:56:35;100637.75;;;1.09;85.49
47430;BME280;33181;49.246;7.372;2023-02-14T01:59:05;100629.13;;;1.10;85.36
47430;BME280;33181;49.246;7.372;2023-02-14T02:01:32;100626.56;;;1.07;85.06
47430;BME280;33181;49.246;7.372;2023-02-14T02:04:04;100624.00;;;1.07;85.20
47430;BME280;33181;49.246;7.372;2023-02-14T02:06:46;100617.06;;;1.06;85.25
47430;BME280;33181;49.246;7.372;2023-02-14T02:09:19;100624.00;;;1.06;84.99
47430;BME280;33181;49.246;7.372;2023-02-14T02:11:46;100623.09;;;1.07;85.41
47430;BME280;33181;49.246;7.372;2023-02-14T02:14:17;100613.75;;;0.97;85.86
47430;BME280;33181;49.246;7.372;2023-02-14T02:17:23;100616.53;;;0.78;88.20
47430;BME280;33181;49.246;7.372;2023-02-14T02:29:00;100613.44;;;0.42;89.21
47430;BME280;33181;49.246;7.372;2023-02-14T02:41:11;100604.84;;;0.37;89.99
47430;BME280;33181;49.246;7.372;2023-02-14T02:50:27;100609.84;;;0.56;88.60
47430;BME280;33181;49.246;7.372;2023-02-14T02:53:43;100615.06;;;0.53;87.65
47430;BME280;33181;49.246;7.372;2023-02-14T02:56:30;100616.81;;;0.51;87.57
47430;BME280;33181;49.246;7.372;2023-02-14T02:59:30;100614.16;;;0.57;87.49
47430;BME280;33181;49.246;7.372;2023-02-14T03:02:08;100616.72;;;0.58;86.95
47430;BME280;33181;49.246;7.372;2023-02-14T03:04:40;100627.03;;;0.61;87.12
47430;BME280;33181;49.246;7.372;2023-02-14T03:07:39;100623.59;;;0.61;86.80
47430;BME280;33181;49.246;7.372;2023-02-14T03:10:15;100629.69;;;0.55;86.75
47430;BME280;33181;49.246;7.372;2023-02-14T03:22:10;100635.81;;;0.45;85.52
47430;BME280;33181;49.246;7.372;2023-02-14T03:25:10;100630.69;;;0.39;85.81
47430;BME280;33181;49.246;7.372;2023-02-14T03:27:57;100627.31;;;0.32;85.80
47430;BME280;33181;49.246;7.372;2023-02-14T03:30:56;100630.75;;;0.31;86.08
47430;BME280;33181;49.246;7.372;2023-02-14T03:33:53;100627.28;;;0.34;86.02
47430;BME280;33181;49.246;7.372;2023-02-14T03:36:39;100625.63;;;0.27;85.58
47430;BME280;33181;49.246;7.372;2023-02-14T03:41:51;100624.78;;;0.26;86.06
47430;BME280;33181;49.246;7.372;2023-02-14T03:44:21;100629.97;;;0.21;86.56
47430;BME280;33181;49.246;7.372;2023-02-14T03:47:03;100630.81;;;0.23;86.08
47430;BME280;33181;49.246;7.372;2023-02-14T03:49:37;100626.53;;;0.21;86.14
47430;BME280;33181;49.246;7.372;2023-02-14T03:52:04;100627.38;;;0.26;85.64
47430;BME280;33181;49.246;7.372;2023-02-14T03:54:32;100625.63;;;0.27;85.37
47430;BME280;33181;49.246;7.372;2023-02-14T03:59:48;100628.25;;;0.22;85.74
47430;BME280;33181;49.246;7.372;2023-02-14T04:02:33;100623.94;;;0.24;85.49
47430;BME280;33181;49.246;7.372;2023-02-14T04:05:11;100618.75;;;0.29;85.27
47430;BME280;33181;49.246;7.372;2023-02-14T04:07:51;100618.72;;;0.30;84.77
47430;BME280;33181;49.246;7.372;2023-02-14T04:10:18;100614.47;;;0.23;85.12
47430;BME280;33181;49.246;7.372;2023-02-14T04:12:45;100624.78;;;0.26;84.69
47430;BME280;33181;49.246;7.372;2023-02-14T04:15:12;100617.84;;;0.28;84.36
47430;BME280;33181;49.246;7.372;2023-02-14T04:17:39;100618.75;;;0.26;84.43
47430;BME280;33181;49.246;7.372;2023-02-14T04:20:24;100622.19;;;0.26;84.61
47430;BME280;33181;49.246;7.372;2023-02-14T04:22:50;100624.81;;;0.18;84.06
47430;BME280;33181;49.246;7.372;2023-02-14T04:25:20;100625.72;;;0.16;83.82
47430;BME280;33181;49.246;7.372;2023-02-14T04:27:46;100625.78;;;0.05;84.20
47430;BME280;33181;49.246;7.372;2023-02-14T04:30:14;100624.19;;;-0.11;84.63
47430;BME280;33181;49.246;7.372;2023-02-14T04:32:42;100625.03;;;-0.08;85.41
47430;BME280;33181;49.246;7.372;2023-02-14T04:35:08;100625.00;;;-0.05;85.49
47430;BME280;33181;49.246;7.372;2023-02-14T04:37:33;100624.16;;;-0.08;85.50
47430;BME280;33181;49.246;7.372;2023-02-14T04:39:59;100623.34;;;-0.13;85.69
47430;BME280;33181;49.246;7.372;2023-02-14T04:42:25;100618.25;;;-0.24;86.09
47430;BME280;33181;49.246;7.372;2023-02-14T04:44:51;100619.16;;;-0.28;86.32
47430;BME280;33181;49.246;7.372;2023-02-14T04:47:17;100614.84;;;-0.32;86.65
47430;BME280;33181;49.246;7.372;2023-02-14T04:49:42;100616.53;;;-0.24;86.29
47430;BME280;33181;49.246;7.372;2023-02-14T04:52:08;100616.47;;;-0.16;86.04
47430;BME280;33181;49.246;7.372;2023-02-14T04:54:34;100612.16;;;-0.17;86.78
47430;BME280;33181;49.246;7.372;2023-02-14T04:57:00;100613.13;;;-0.35;87.20
47430;BME280;33181;49.246;7.372;2023-02-14T04:59:25;100609.72;;;-0.34;88.12
47430;BME280;33181;49.246;7.372;2023-02-14T05:01:52;100613.91;;;-0.20;88.05
47430;BME280;33181;49.246;7.372;2023-02-14T05:04:18;100618.19;;;-0.15;87.91
47430;BME280;33181;49.246;7.372;2023-02-14T05:06:43;100625.03;;;-0.08;87.37
47430;BME280;33181;49.246;7.372;2023-02-14T05:09:09;100615.53;;;-0.07;87.31
47430;BME280;33181;49.246;7.372;2023-02-14T05:11:35;100613.81;;;-0.02;87.07
47430;BME280;33181;49.246;7.372;2023-02-14T05:14:01;100607.75;;;0.01;86.76
47430;BME280;33181;49.246;7.372;2023-02-14T05:16:26;100612.94;;;0.01;86.47
47430;BME280;33181;49.246;7.372;2023-02-14T05:18:52;100607.75;;;0.04;85.98
47430;BME280;33181;49.246;7.372;2023-02-14T05:21:18;100602.59;;;-0.01;85.56
47430;BME280;33181;49.246;7.372;2023-02-14T05:23:43;100605.25;;;-0.09;85.67
47430;BME280;33181;49.246;7.372;2023-02-14T05:26:09;100605.28;;;-0.15;86.08
47430;BME280;33181;49.246;7.372;2023-02-14T05:28:35;100606.13;;;-0.16;86.20
47430;BME280;33181;49.246;7.372;2023-02-14T05:31:01;100613.06;;;-0.18;84.59
47430;BME280;33181;49.246;7.372;2023-02-14T05:33:27;100614.81;;;-0.26;85.12
47430;BME280;33181;49.246;7.372;2023-02-14T05:35:52;100612.22;;;-0.23;85.71
47430;BME280;33181;49.246;7.372;2023-02-14T05:38:18;100608.75;;;-0.19;85.61
47430;BME280;33181;49.246;7.372;2023-02-14T05:40:45;100617.34;;;-0.15;85.46
47430;BME280;33181;49.246;7.372;2023-02-14T05:43:11;100625.06;;;-0.12;85.52
47430;BME280;33181;49.246;7.372;2023-02-14T05:45:37;100617.34;;;-0.17;85.14
47430;BME280;33181;49.246;7.372;2023-02-14T05:48:03;100622.47;;;-0.14;85.23
47430;BME280;33181;49.246;7.372;2023-02-14T05:50:30;100630.22;;;-0.09;84.54
47430;BME280;33181;49.246;7.372;2023-02-14T05:52:56;100622.44;;;-0.08;84.39
47430;BME280;33181;49.246;7.372;2023-02-14T05:55:22;100624.16;;;-0.10;84.52
47430;BME280;33181;49.246;7.372;2023-02-14T05:57:49;100620.75;;;-0.13;84.34
47430;BME280;33181;49.246;7.372;2023-02-14T06:00:15;100618.19;;;-0.12;83.88
47430;BME280;33181;49.246;7.372;2023-02-14T06:02:41;100625.94;;;-0.15;83.26
47430;BME280;33181;49.246;7.372;2023-02-14T06:05:07;100623.38;;;-0.19;82.80
47430;BME280;33181;49.246;7.372;2023-02-14T06:07:32;100627.69;;;-0.20;83.69
47430;BME280;33181;49.246;7.372;2023-02-14T06:09:58;100630.31;;;-0.25;84.00
47430;BME280;33181;49.246;7.372;2023-02-14T06:12:24;100628.59;;;-0.27;84.12
47430;BME280;33181;49.246;7.372;2023-02-14T06:14:50;100625.19;;;-0.31;83.24
47430;BME280;33181;49.246;7.372;2023-02-14T06:17:15;100623.47;;;-0.35;83.61
47430;BME280;33181;49.246;7.372;2023-02-14T06:19:41;100623.50;;;-0.36;83.76
47430;BME280;33181;49.246;7.372;2023-02-14T06:22:08;100630.41;;;-0.43;84.17
47430;BME280;33181;49.246;7.372;2023-02-14T06:24:33;100622.66;;;-0.41;84.30
47430;BME280;33181;49.246;7.372;2023-02-14T06:26:59;100630.47;;;-0.55;85.31
47430;BME280;33181;49.246;7.372;2023-02-14T06:29:25;100631.31;;;-0.52;85.62
47430;BME280;33181;49.246;7.372;2023-02-14T06:31:51;100627.88;;;-0.49;85.21
47430;BME280;33181;49.246;7.372;2023-02-14T06:34:17;100633.91;;;-0.50;85.57
47430;BME280;33181;49.246;7.372;2023-02-14T06:36:43;100625.28;;;-0.51;85.49
47430;BME280;33181;49.246;7.372;2023-02-14T06:39:08;100628.72;;;-0.44;85.34
47430;BME280;33181;49.246;7.372;2023-02-14T06:41:34;100633.81;;;-0.39;84.98
47430;BME280;33181;49.246;7.372;2023-02-14T06:44:00;100637.25;;;-0.39;85.03
47430;BME280;33181;49.246;7.372;2023-02-14T06:46:26;100632.13;;;-0.40;84.85
47430;BME280;33181;49.246;7.372;2023-02-14T06:48:51;100633.09;;;-0.63;85.55
47430;BME280;33181;49.246;7.372;2023-02-14T06:51:17;100640.09;;;-0.91;87.44
47430;BME280;33181;49.246;7.372;2023-02-14T06:53:43;100636.59;;;-0.82;87.65
47430;BME280;33181;49.246;7.372;2023-02-14T06:56:08;100633.13;;;-0.74;87.16
47430;BME280;33181;49.246;7.372;2023-02-14T06:58:34;100634.94;;;-0.91;88.48
47430;BME280;33181;49.246;7.372;2023-02-14T07:01:00;100634.91;;;-0.82;88.42
47430;BME280;33181;49.246;7.372;2023-02-14T07:03:26;100640.88;;;-0.77;87.78
47430;BME280;33181;49.246;7.372;2023-02-14T07:05:55;100642.63;;;-0.76;87.83
47430;BME280;33181;49.246;7.372;2023-02-14T07:08:21;100638.31;;;-0.72;87.86
47430;BME280;33181;49.246;7.372;2023-02-14T07:10:47;100644.28;;;-0.70;87.94
47430;BME280;33181;49.246;7.372;2023-02-14T07:13:13;100646.91;;;-0.75;88.15
47430;BME280;33181;49.246;7.372;2023-02-14T07:15:39;100642.56;;;-0.68;88.23
47430;BME280;33181;49.246;7.372;2023-02-14T07:18:05;100638.19;;;-0.54;88.04
47430;BME280;33181;49.246;7.372;2023-02-14T07:20:34;100643.31;;;-0.48;87.45
47430;BME280;33181;49.246;7.372;2023-02-14T07:22:59;100635.59;;;-0.46;87.36
47430;BME280;33181;49.246;7.372;2023-02-14T07:25:25;100635.56;;;-0.40;87.34
47430;BME280;33181;49.246;7.372;2023-02-14T07:27:53;100637.25;;;-0.34;87.22
47430;BME280;33181;49.246;7.372;2023-02-14T07:30:19;100639.84;;;-0.37;87.13
47430;BME280;33181;49.246;7.372;2023-02-14T07:32:44;100639.06;;;-0.52;87.11
47430;BME280;33181;49.246;7.372;2023-02-14T07:35:10;100638.25;;;-0.60;88.59
47430;BME280;33181;49.246;7.372;2023-02-14T07:37:39;100639.88;;;-0.43;88.29
47430;BME280;33181;49.246;7.372;2023-02-14T07:40:07;100639.72;;;-0.17;88.37
47430;BME280;33181;49.246;7.372;2023-02-14T07:42:32;100639.59;;;0.03;87.30
47430;BME280;33181;49.246;7.372;2023-02-14T07:44:58;100644.75;;;0.03;87.02
47430;BME280;33181;49.246;7.372;2023-02-14T07:47:24;100636.00;;;0.22;86.89
47430;BME280;33181;49.246;7.372;2023-02-14T07:49:50;100634.19;;;0.35;86.70
47430;BME280;33181;49.246;7.372;2023-02-14T07:52:16;100641.81;;;0.49;86.10
47430;BME280;33181;49.246;7.372;2023-02-14T07:54:42;100641.72;;;0.61;85.74
47430;BME280;33181;49.246;7.372;2023-02-14T07:57:08;100640.84;;;0.63;84.97
47430;BME280;33181;49.246;7.372;2023-02-14T07:59:33;100649.38;;;0.68;84.35
47430;BME280;33181;49.246;7.372;2023-02-14T08:01:59;100639.84;;;0.75;84.31
47430;BME280;33181;49.246;7.372;2023-02-14T08:04:25;100639.78;;;0.81;83.36
47430;BME280;33181;49.246;7.372;2023-02-14T08:06:52;100638.97;;;0.76;84.02
47430;BME280;33181;49.246;7.372;2023-02-14T08:09:19;100635.41;;;0.85;83.78
47430;BME280;33181;49.246;7.372;2023-02-14T08:11:58;100637.13;;;0.87;83.30
47430;BME280;33181;49.246;7.372;2023-02-14T08:14:43;100637.94;;;0.92;83.43
47430;BME280;33181;49.246;7.372;2023-02-14T08:17:15;100641.41;;;0.91;83.68
47430;BME280;33181;49.246;7.372;2023-02-14T08:19:54;100647.47;;;0.87;83.30
47430;BME280;33181;49.246;7.372;2023-02-14T08:22:20;100641.34;;;0.96;83.45
47430;BME280;33181;49.246;7.372;2023-02-14T08:24:45;100641.41;;;0.91;83.74
47430;BME280;33181;49.246;7.372;2023-02-14T08:27:11;100647.44;;;0.92;83.70
47430;BME280;33181;49.246;7.372;2023-02-14T08:29:37;100638.63;;;1.07;83.82
47430;BME280;33181;49.246;7.372;2023-02-14T08:32:03;100641.91;;;1.24;83.89
47430;BME280;33181;49.246;7.372;2023-02-14T08:34:28;100645.13;;;1.42;83.74
47430;BME280;33181;49.246;7.372;2023-02-14T08:36:54;100650.06;;;1.60;82.80
47430;BME280;33181;49.246;7.372;2023-02-14T08:39:20;100642.13;;;1.74;83.01
47430;BME280;33181;49.246;7.372;2023-02-14T08:41:46;100644.56;;;1.84;82.12
47430;BME280;33181;49.246;7.372;2023-02-14T08:44:11;100645.50;;;1.79;82.40
47430;BME280;33181;49.246;7.372;2023-02-14T08:46:37;100641.97;;;1.84;81.50
47430;BME280;33181;49.246;7.372;2023-02-14T08:49:03;100651.66;;;1.72;81.84
47430;BME280;33181;49.246;7.372;2023-02-14T08:51:28;100655.09;;;1.72;82.34
47430;BME280;33181;49.246;7.372;2023-02-14T08:53:54;100653.63;;;1.53;84.77
47430;BME280;33181;49.246;7.372;2023-02-14T08:56:20;100657.22;;;1.43;86.93
47430;BME280;33181;49.246;7.372;2023-02-14T08:58:50;100655.69;;;1.25;88.64
47430;BME280;33181;49.246;7.372;2023-02-14T09:01:26;100643.47;;;1.37;89.80
47430;BME280;33181;49.246;7.372;2023-02-14T09:03:53;100658.31;;;1.23;90.07
47430;BME280;33181;49.246;7.372;2023-02-14T09:06:19;100651.13;;;0.69;93.77
47430;BME280;33181;49.246;7.372;2023-02-14T09:08:45;100648.44;;;0.77;95.73
47430;BME280;33181;49.246;7.372;2023-02-14T09:11:20;100652.03;;;0.64;96.18
47430;BME280;33181;49.246;7.372;2023-02-14T09:13:47;100647.81;;;0.52;98.45
47430;BME280;33181;49.246;7.372;2023-02-14T09:16:16;100654.03;;;0.30;100.00
47430;BME280;33181;49.246;7.372;2023-02-14T09:18:43;100649.63;;;0.42;100.00
47430;BME280;33181;49.246;7.372;2023-02-14T09:21:13;100639.16;;;0.58;100.00
47430;BME280;33181;49.246;7.372;2023-02-14T09:23:40;100636.31;;;0.85;100.00
47430;BME280;33181;49.246;7.372;2023-02-14T09:26:10;100644.72;;;1.04;99.20
47430;BME280;33181;49.246;7.372;2023-02-14T09:28:36;100635.94;;;1.18;97.72
47430;BME280;33181;49.246;7.372;2023-02-14T09:31:18;100636.66;;;1.29;96.72
47430;BME280;33181;49.246;7.372;2023-02-14T09:33:48;100633.13;;;1.34;96.42
47430;BME280;33181;49.246;7.372;2023-02-14T09:36:14;100633.91;;;1.41;96.17
47430;BME280;33181;49.246;7.372;2023-02-14T09:38:42;100638.25;;;1.41;95.75
47430;BME280;33181;49.246;7.372;2023-02-14T09:43:58;100625.38;;;1.36;96.05
47430;BME280;33181;49.246;7.372;2023-02-14T09:46:27;100619.38;;;1.31;96.27
47430;BME280;33181;49.246;7.372;2023-02-14T09:48:55;100625.25;;;1.45;97.08
47430;BME280;33181;49.246;7.372;2023-02-14T09:51:26;100620.88;;;1.49;96.01
47430;BME280;33181;49.246;7.372;2023-02-14T09:54:01;100621.13;;;1.30;97.08
47430;BME280;33181;49.246;7.372;2023-02-14T09:59:30;100627.09;;;1.32;99.74
47430;BME280;33181;49.246;7.372;2023-02-14T10:02:38;100623.31;;;1.61;97.75
47430;BME280;33181;49.246;7.372;2023-02-14T10:05:34;100618.94;;;1.63;96.78
47430;BME280;33181;49.246;7.372;2023-02-14T10:10:51;100625.34;;;1.99;95.99
47430;BME280;33181;49.246;7.372;2023-02-14T10:21:47;100619.84;;;2.21;96.51
47430;BME280;33181;49.246;7.372;2023-02-14T10:24:27;100621.94;;;2.48;94.69
47430;BME280;33181;49.246;7.372;2023-02-14T10:27:02;100622.59;;;2.61;93.80
47430;BME280;33181;49.246;7.372;2023-02-14T10:29:28;100625.13;;;2.64;92.60
47430;BME280;33181;49.246;7.372;2023-02-14T10:32:01;100622.25;;;2.79;92.84
47430;BME280;33181;49.246;7.372;2023-02-14T10:34:47;100617.41;;;3.08;93.13
47430;BME280;33181;49.246;7.372;2023-02-14T10:37:49;100609.63;;;3.48;92.33
47430;BME280;33181;49.246;7.372;2023-02-14T10:40:59;100605.72;;;3.69;88.20
47430;BME280;33181;49.246;7.372;2023-02-14T10:50:02;100602.50;;;4.32;83.33
47430;BME280;33181;49.246;7.372;2023-02-14T10:52:47;100595.00;;;4.20;83.59
47430;BME280;33181;49.246;7.372;2023-02-14T10:55:27;100592.81;;;4.37;84.28
47430;BME280;33181;49.246;7.372;2023-02-14T10:57:56;100589.34;;;4.37;83.32
47430;BME280;33181;49.246;7.372;2023-02-14T11:00:27;100584.38;;;4.62;83.44
47430;BME280;33181;49.246;7.372;2023-02-14T11:03:00;100581.72;;;4.95;82.51
47430;BME280;33181;49.246;7.372;2023-02-14T11:05:42;100574.75;;;5.26;81.21
47430;BME280;33181;49.246;7.372;2023-02-14T11:08:36;100572.50;;;5.44;79.54
47430;BME280;33181;49.246;7.372;2023-02-14T11:11:20;100572.13;;;5.84;78.84
47430;BME280;33181;49.246;7.372;2023-02-14T11:13:48;100569.47;;;6.14;74.85
47430;BME280;33181;49.246;7.372;2023-02-14T11:16:33;100553.13;;;6.59;75.46
47430;BME280;33181;49.246;7.372;2023-02-14T11:19:27;100554.25;;;7.47;72.74
47430;BME280;33181;49.246;7.372;2023-02-14T11:21:57;100550.97;;;7.86;69.98
47430;BME280;33181;49.246;7.372;2023-02-14T11:24:35;100543.75;;;8.33;69.06
47430;BME280;33181;49.246;7.372;2023-02-14T11:32:14;100541.69;;;9.20;65.43
47430;BME280;33181;49.246;7.372;2023-02-14T11:35:00;100545.78;;;9.45;64.23
47430;BME280;33181;49.246;7.372;2023-02-14T11:37:30;100544.78;;;9.66;63.21
47430;BME280;33181;49.246;7.372;2023-02-14T11:39:59;100541.47;;;9.63;61.58
47430;BME280;33181;49.246;7.372;2023-02-14T11:42:44;100537.16;;;9.79;61.32
47430;BME280;33181;49.246;7.372;2023-02-14T11:45:37;100532.84;;;9.78;62.78
47430;BME280;33181;49.246;7.372;2023-02-14T11:48:23;100527.38;;;9.83;61.64
47430;BME280;33181;49.246;7.372;2023-02-14T11:51:10;100522.56;;;9.73;60.42
47430;BME280;33181;49.246;7.372;2023-02-14T11:56:11;100518.72;;;9.44;63.92
47430;BME280;33181;49.246;7.372;2023-02-14T12:01:25;100503.31;;;10.27;61.07
47430;BME280;33181;49.246;7.372;2023-02-14T12:03:52;100499.38;;;10.35;61.15
47430;BME280;33181;49.246;7.372;2023-02-14T12:06:28;100491.91;;;10.61;60.39
47430;BME280;33181;49.246;7.372;2023-02-14T12:09:33;100490.84;;;10.81;59.05
47430;BME280;33181;49.246;7.372;2023-02-14T12:12:21;100484.94;;;10.93;58.29
47430;BME280;33181;49.246;7.372;2023-02-14T12:15:35;100475.97;;;11.29;57.76
47430;BME280;33181;49.246;7.372;2023-02-14T12:18:50;100467.03;;;11.16;58.81
47430;BME280;33181;49.246;7.372;2023-02-14T12:25:15;100460.38;;;11.10;58.93
47430;BME280;33181;49.246;7.372;2023-02-14T12:30:51;100452.28;;;11.29;58.39
47430;BME280;33181;49.246;7.372;2023-02-14T12:33:21;100448.34;;;11.52;58.23
47430;BME280;33181;49.246;7.372;2023-02-14T12:36:15;100444.38;;;11.91;57.67
47430;BME280;33181;49.246;7.372;2023-02-14T12:44:13;100427.13;;;12.44;56.33
47430;BME280;33181;49.246;7.372;2023-02-14T12:47:15;100425.53;;;12.56;55.99
47430;BME280;33181;49.246;7.372;2023-02-14T13:01:46;100397.78;;;13.33;54.32
47430;BME280;33181;49.246;7.372;2023-02-14T13:04:55;100396.94;;;13.32;54.04
47430;BME280;33181;49.246;7.372;2023-02-14T13:07:44;100386.84;;;13.52;53.83
47430;BME280;33181;49.246;7.372;2023-02-14T13:22:33;100357.81;;;13.52;53.33
47430;BME280;33181;49.246;7.372;2023-02-14T13:25:08;100359.00;;;13.60;53.77
47430;BME280;33181;49.246;7.372;2023-02-14T13:27:38;100348.34;;;13.62;53.82
47430;BME280;33181;49.246;7.372;2023-02-14T13:30:22;100346.53;;;13.50;54.44
47430;BME280;33181;49.246;7.372;2023-02-14T13:32:50;100344.38;;;13.42;54.02
47430;BME280;33181;49.246;7.372;2023-02-14T13:35:19;100342.50;;;13.44;54.26
47430;BME280;33181;49.246;7.372;2023-02-14T13:37:54;100329.81;;;13.49;54.45
47430;BME280;33181;49.246;7.372;2023-02-14T13:40:25;100333.97;;;13.53;54.36
47430;BME280;33181;49.246;7.372;2023-02-14T13:42:59;100332.69;;;13.59;54.17
47430;BME280;33181;49.246;7.372;2023-02-14T13:48:26;100334.19;;;13.76;54.25
47430;BME280;33181;49.246;7.372;2023-02-14T13:50:59;100327.72;;;13.67;53.84
47430;BME280;33181;49.246;7.372;2023-02-14T13:53:44;100322.16;;;13.72;53.83
47430;BME280;33181;49.246;7.372;2023-02-14T13:58:52;100313.38;;;13.97;53.84
47430;BME280;33181;49.246;7.372;2023-02-14T14:17:38;100304.28;;;13.88;54.87
47430;BME280;33181;49.246;7.372;2023-02-14T14:25:48;100295.81;;;13.83;54.06
47430;BME280;33181;49.246;7.372;2023-02-14T14:28:24;100293.31;;;13.16;55.34
47430;BME280;33181;49.246;7.372;2023-02-14T14:30:51;100294.88;;;12.51;56.12
47430;BME280;33181;49.246;7.372;2023-02-14T14:33:31;100291.34;;;12.24;55.26
47430;BME280;33181;49.246;7.372;2023-02-14T14:36:08;100300.38;;;11.91;58.18
47430;BME280;33181;49.246;7.372;2023-02-14T14:38:50;100298.66;;;11.76;57.81
47430;BME280;33181;49.246;7.372;2023-02-14T14:41:17;100297.91;;;11.74;60.52
47430;BME280;33181;49.246;7.372;2023-02-14T14:43:42;100294.94;;;11.50;61.42
47430;BME280;33181;49.246;7.372;2023-02-14T14:46:11;100293.31;;;11.33;62.36
47430;BME280;33181;49.246;7.372;2023-02-14T14:48:46;100279.63;;;11.42;62.39
47430;BME280;33181;49.246;7.372;2023-02-14T14:53:55;100276.94;;;11.58;61.62
47430;BME280;33181;49.246;7.372;2023-02-14T14:56:33;100280.94;;;11.49;61.51
47430;BME280;33181;49.246;7.372;2023-02-14T15:01:55;100276.69;;;11.32;61.57
47430;BME280;33181;49.246;7.372;2023-02-14T15:04:32;100279.50;;;11.29;61.94
47430;BME280;33181;49.246;7.372;2023-02-14T15:07:33;100274.31;;;11.28;62.54
47430;BME280;33181;49.246;7.372;2023-02-14T15:10:01;100280.25;;;11.31;62.83
47430;BME280;33181;49.246;7.372;2023-02-14T15:12:28;100275.88;;;11.32;63.19
47430;BME280;33181;49.246;7.372;2023-02-14T15:15:16;100267.78;;;11.35;63.15
47430;BME280;33181;49.246;7.372;2023-02-14T15:17:43;100270.09;;;11.25;63.25
47430;BME280;33181;49.246;7.372;2023-02-14T15:20:19;100268.69;;;11.20;63.56
47430;BME280;33181;49.246;7.372;2023-02-14T15:22:49;100267.56;;;11.24;63.47
47430;BME280;33181;49.246;7.372;2023-02-14T15:25:34;100269.97;;;11.12;63.75
47430;BME280;33181;49.246;7.372;2023-02-14T15:28:02;100270.41;;;11.05;64.29
47430;BME280;33181;49.246;7.372;2023-02-14T15:30:33;100270.59;;;11.02;64.07
47430;BME280;33181;49.246;7.372;2023-02-14T15:33:04;100261.69;;;11.04;64.31
47430;BME280;33181;49.246;7.372;2023-02-14T15:35:35;100256.16;;;11.09;64.15
47430;BME280;33181;49.246;7.372;2023-02-14T15:38:09;100260.25;;;10.99;64.34
47430;BME280;33181;49.246;7.372;2023-02-14T15:40:36;100258.81;;;10.93;64.93
47430;BME280;33181;49.246;7.372;2023-02-14T15:45:46;100270.47;;;10.89;65.01
47430;BME280;33181;49.246;7.372;2023-02-14T15:48:18;100260.53;;;10.94;64.84
47430;BME280;33181;49.246;7.372;2023-02-14T15:50:55;100259.00;;;10.90;65.11